Time;durP1;ratioP1;P1;durP2;ratioP2;P2;SDS_P1;SDS_P2;PMS_P1;PMS_P2;Temp;Humidity;BMP_temperature;BMP_pressure;BME280_temperature;BME280_humidity;BME280_pressure;Samples;Min_cycle;Max_cycle;Signal;HPM_P1;HPM_P2
2023/12/11 05:33:01;;;;;;;;;4.25;2.50;;;;;21.38;47.34;100203.50;4996946;28;45414;-85
2023/12/11 05:35:27;;;;;;;;;3.00;2.00;;;;;21.13;47.94;100191.44;4996076;28;45310;-84
2023/12/11 05:37:52;;;;;;;;;2.00;2.00;;;;;21.00;47.99;100165.53;4996593;28;45624;-84
2023/12/11 05:40:17;;;;;;;;;7.00;3.00;;;;;21.01;47.62;100170.00;4997242;28;45648;-85
2023/12/11 05:42:43;;;;;;;;;1.75;1.75;;;;;21.11;47.74;100159.88;4996795;28;45270;-84
2023/12/11 05:45:09;;;;;;;;;2.25;1.50;;;;;21.23;47.51;100161.41;4997194;28;45231;-85
2023/12/11 05:47:35;;;;;;;;;5.25;2.75;;;;;21.64;47.16;100227.34;4980963;28;46813;-85
2023/12/11 05:50:01;;;;;;;;;4.50;2.00;;;;;21.42;47.04;100158.59;4992342;28;47171;-84
2023/12/11 05:52:26;;;;;;;;;1.75;1.75;;;;;21.46;46.49;100165.44;4996017;28;45443;-84
2023/12/11 05:54:52;;;;;;;;;3.00;3.00;;;;;21.49;45.98;100159.66;4997244;28;45302;-84
2023/12/11 05:57:17;;;;;;;;;8.50;3.75;;;;;21.38;45.78;100137.22;4996396;28;45454;-85
2023/12/11 05:59:42;;;;;;;;;3.00;2.00;;;;;21.53;46.19;100171.97;4997172;28;46079;-84
2023/12/11 06:02:08;;;;;;;;;5.25;2.25;;;;;21.52;46.28;100172.16;4995864;28;45559;-84
2023/12/11 06:04:33;;;;;;;;;3.75;2.00;;;;;21.47;45.64;100177.19;4996718;28;45293;-85
2023/12/11 06:06:58;;;;;;;;;1.50;1.50;;;;;21.52;46.27;100172.16;4979003;28;47146;-85
2023/12/11 06:09:24;;;;;;;;;7.00;3.75;;;;;21.82;45.81;100234.53;4978835;28;47221;-84
2023/12/11 06:11:49;;;;;;;;;4.25;2.50;;;;;21.70;45.45;100189.38;4996630;28;45542;-84
2023/12/11 06:14:14;;;;;;;;;2.25;2.25;;;;;21.84;45.53;100202.50;4997128;28;45250;-84
2023/12/11 06:16:40;;;;;;;;;3.00;1.00;;;;;21.71;45.52;100174.72;4996166;28;45527;-86
2023/12/11 06:19:05;;;;;;;;;4.50;3.00;;;;;21.65;45.41;100193.59;4997013;28;46307;-86
2023/12/11 06:21:31;;;;;;;;;3.00;2.00;;;;;21.94;45.92;100242.50;4996659;28;45514;-82
2023/12/11 06:23:56;;;;;;;;;3.75;2.75;;;;;21.51;45.41;100205.91;4978823;28;45441;-83
2023/12/11 06:26:28;;;;;;;;;2.75;2.75;;;;;21.58;45.52;100184.31;4996516;28;45622;-85
2023/12/11 06:28:53;;;;;;;;;5.00;2.75;;;;;21.78;46.34;100246.75;4996325;28;45536;-84
2023/12/11 06:31:19;;;;;;;;;3.00;1.25;;;;;21.51;45.77;100187.66;4983338;28;45681;-85
2023/12/11 06:33:44;;;;;;;;;3.00;3.00;;;;;21.66;45.51;100206.22;4998122;28;45411;-84
2023/12/11 06:36:10;;;;;;;;;9.25;2.00;;;;;21.59;45.64;100226.94;5015620;28;45228;-85
2023/12/11 06:38:35;;;;;;;;;3.75;1.50;;;;;21.52;45.53;100202.97;5015805;28;46381;-85
2023/12/11 06:41:00;;;;;;;;;2.75;2.75;;;;;21.72;45.85;100271.06;5016242;28;45484;-85
2023/12/11 06:43:26;;;;;;;;;3.50;1.00;;;;;21.44;45.98;100232.03;5016139;28;45358;-85
2023/12/11 06:45:51;;;;;;;;;3.75;3.00;;;;;21.61;46.19;100266.69;5016163;28;45263;-86
2023/12/11 06:48:16;;;;;;;;;1.50;0.50;;;;;21.23;46.31;100196.88;4997797;28;46964;-82
2023/12/11 06:50:42;;;;;;;;;4.00;4.00;;;;;21.39;45.96;100183.41;5015337;28;45250;-81
2023/12/11 06:53:08;;;;;;;;;6.25;2.00;;;;;21.76;45.31;100226.97;4997500;28;45469;-82
2023/12/11 06:55:33;;;;;;;;;6.50;2.00;;;;;21.79;45.65;100214.88;5015049;28;45605;-83
2023/12/11 06:57:58;;;;;;;;;4.00;2.50;;;;;21.83;45.66;100228.06;5015383;28;46393;-81
2023/12/11 07:00:25;;;;;;;;;3.00;2.00;;;;;21.76;45.93;100259.72;4996887;28;57547;-79
2023/12/11 07:02:50;;;;;;;;;3.00;1.00;;;;;21.81;45.57;100265.56;5015233;28;45380;-77
2023/12/11 07:05:16;;;;;;;;;4.00;1.75;;;;;21.69;46.00;100268.66;5001065;28;45443;-78
2023/12/11 07:07:41;;;;;;;;;2.50;2.50;;;;;21.81;46.02;100272.88;5014673;28;46391;-79
2023/12/11 07:10:06;;;;;;;;;5.25;3.25;;;;;21.99;45.24;100271.06;5015005;28;45597;-77
2023/12/11 07:12:32;;;;;;;;;5.50;5.00;;;;;21.98;45.44;100271.22;5015087;28;45425;-79
2023/12/11 07:14:57;;;;;;;;;3.25;2.00;;;;;22.06;45.33;100283.06;5014727;28;45422;-79
2023/12/11 07:17:22;;;;;;;;;9.00;4.25;;;;;21.90;45.16;100291.94;5014581;28;45372;-78
2023/12/11 07:19:48;;;;;;;;;2.00;2.00;;;;;21.70;45.79;100259.44;5014510;28;45317;-78
2023/12/11 07:22:13;;;;;;;;;7.00;4.25;;;;;21.88;45.55;100299.41;5014245;28;45475;-80
2023/12/11 07:24:40;;;;;;;;;6.00;3.75;;;;;21.78;45.34;100273.19;4996227;28;46438;-81
2023/12/11 07:27:05;;;;;;;;;4.25;2.25;;;;;21.84;45.48;100278.91;4998239;28;48483;-77
2023/12/11 07:29:30;;;;;;;;;2.25;2.25;;;;;22.12;45.18;100314.34;4978999;28;45553;-81
2023/12/11 07:31:56;;;;;;;;;4.75;3.50;;;;;21.79;45.15;100297.59;5005690;28;52625;-78
2023/12/11 07:34:22;;;;;;;;;3.75;2.00;;;;;21.75;45.01;100293.47;5013942;28;54723;-80
2023/12/11 07:36:51;;;;;;;;;4.00;4.00;;;;;21.73;45.67;100339.13;5011531;28;46105;-76
2023/12/11 07:39:16;;;;;;;;;4.00;2.50;;;;;21.73;45.60;100333.69;5011805;28;45877;-77
2023/12/11 07:41:41;;;;;;;;;8.00;3.75;;;;;21.56;45.63;100331.75;5014235;28;45587;-76
2023/12/11 07:44:07;;;;;;;;;4.50;2.75;;;;;21.79;45.39;100343.13;5016045;28;45381;-78
2023/12/11 07:46:33;;;;;;;;;5.75;3.00;;;;;21.87;45.04;100333.16;5017396;28;45428;-77
2023/12/11 07:48:58;;;;;;;;;4.00;2.00;;;;;21.85;45.16;100337.94;5017553;28;45419;-76
2023/12/11 07:51:24;;;;;;;;;2.75;2.75;;;;;21.93;45.02;100348.09;4996526;28;52906;-78
2023/12/11 07:53:50;;;;;;;;;5.75;3.25;;;;;21.93;45.10;100359.00;5013621;28;45262;-76
2023/12/11 07:56:22;;;;;;;;;2.50;2.50;;;;;21.89;44.98;100354.84;5014021;28;45401;-77
2023/12/11 07:58:48;;;;;;;;;2.25;2.25;;;;;21.77;45.15;100358.81;4997611;28;45514;-77
2023/12/11 08:01:14;;;;;;;;;5.00;3.00;;;;;21.53;45.66;100362.06;5017896;28;45375;-78
2023/12/11 08:03:40;;;;;;;;;3.00;3.00;;;;;21.64;45.24;100375.50;5017296;28;45203;-77
2023/12/11 08:06:05;;;;;;;;;2.00;2.00;;;;;21.69;45.32;100370.44;5000305;28;45245;-79
2023/12/11 08:08:31;;;;;;;;;6.50;3.50;;;;;21.46;45.80;100382.75;5017414;28;45313;-77
2023/12/11 08:10:56;;;;;;;;;7.75;2.25;;;;;21.51;45.42;100373.13;5017742;28;45337;-80
2023/12/11 08:13:21;;;;;;;;;2.25;2.25;;;;;21.40;45.95;100386.94;5018918;28;60976;-76
2023/12/11 08:15:47;;;;;;;;;4.75;2.00;;;;;21.20;46.40;100378.97;5016652;28;52878;-77
2023/12/11 08:18:12;;;;;;;;;3.00;2.50;;;;;21.38;45.86;100386.22;5017150;28;45286;-77
2023/12/11 08:20:37;;;;;;;;;5.75;2.75;;;;;21.53;45.53;100384.75;5009541;28;45348;-75
2023/12/11 08:23:03;;;;;;;;;6.25;3.00;;;;;21.44;45.64;100396.53;5014225;28;45467;-78
2023/12/11 08:25:28;;;;;;;;;2.00;2.00;;;;;21.63;45.51;100400.22;5017216;28;45995;-77
2023/12/11 08:27:54;;;;;;;;;5.50;2.50;;;;;21.63;45.43;100397.47;4992026;28;53123;-78
2023/12/11 08:30:19;;;;;;;;;5.50;2.75;;;;;21.73;45.25;100401.03;5017390;28;45755;-77
2023/12/11 08:32:44;;;;;;;;;5.50;3.00;;;;;21.68;45.28;100396.03;5016598;28;45364;-77
2023/12/11 08:35:10;;;;;;;;;5.00;3.75;;;;;21.83;45.23;100410.03;5017088;28;45388;-76
2023/12/11 08:37:35;;;;;;;;;6.00;3.25;;;;;;;;5016370;28;45369;-77
2023/12/11 08:40:03;;;;;;;;;3.25;1.50;;;;;21.76;45.13;100398.03;5016817;28;45435;-77
2023/12/11 08:42:31;;;;;;;;;4.00;4.00;;;;;21.46;45.22;100410.91;5014884;28;45510;-78
2023/12/11 08:44:56;;;;;;;;;4.00;3.00;;;;;21.66;44.88;100398.06;4998485;28;47222;-76
2023/12/11 08:47:22;;;;;;;;;5.25;3.75;;;;;21.71;45.11;100409.38;5016763;28;45321;-78
2023/12/11 08:49:48;;;;;;;;;3.75;2.75;;;;;21.51;44.94;100405.88;5016841;28;45945;-80
2023/12/11 08:52:13;;;;;;;;;4.00;2.75;;;;;21.43;45.50;100424.84;5016821;28;45444;-74
2023/12/11 08:54:39;;;;;;;;;6.25;4.50;;;;;21.20;45.84;100423.44;5016577;28;45448;-76
2023/12/11 08:57:04;;;;;;;;;4.00;2.50;;;;;21.41;45.97;100415.09;5016688;28;45353;-78
2023/12/11 08:59:31;;;;;;;;;5.25;3.00;;;;;21.70;45.31;100439.53;5013236;28;45407;-78
2023/12/11 09:01:57;;;;;;;;;5.50;3.25;;;;;21.75;44.59;100427.19;5013098;28;45579;-79
2023/12/11 09:04:22;;;;;;;;;4.50;2.00;;;;;21.67;45.37;100445.31;5016194;28;46138;-79
2023/12/11 09:06:47;;;;;;;;;4.50;3.00;;;;;21.44;45.45;100445.63;5005921;28;50929;-82
2023/12/11 09:09:13;;;;;;;;;7.00;3.75;;;;;21.20;45.69;100407.09;5015610;28;45357;-79
2023/12/11 09:11:39;;;;;;;;;7.00;2.75;;;;;21.49;45.43;100404.28;5014350;28;45412;-80
2023/12/11 09:14:04;;;;;;;;;3.75;2.50;;;;;21.25;45.63;100423.88;5015293;28;45589;-81
2023/12/11 09:16:29;;;;;;;;;7.25;2.75;;;;;21.25;45.95;100442.09;4997696;28;46807;-81
2023/12/11 09:18:55;;;;;;;;;4.50;2.00;;;;;21.46;45.96;100431.84;5015804;28;50810;-80
2023/12/11 09:21:22;;;;;;;;;4.75;4.75;;;;;21.47;45.38;100428.97;5015664;28;45542;-80
2023/12/11 09:23:47;;;;;;;;;4.50;4.00;;;;;21.62;45.48;100450.31;5015093;28;45368;-78
2023/12/11 09:26:13;;;;;;;;;7.75;3.75;;;;;21.75;44.94;100450.88;5015966;28;45411;-81
2023/12/11 09:28:39;;;;;;;;;4.75;3.00;;;;;21.75;44.98;100448.16;5010350;28;45463;-81
2023/12/11 09:31:04;;;;;;;;;2.50;2.50;;;;;21.69;44.99;100446.84;4998060;28;45593;-78
2023/12/11 09:33:30;;;;;;;;;4.00;2.00;;;;;21.69;45.38;100460.50;5015726;28;46037;-80
2023/12/11 09:35:56;;;;;;;;;4.50;4.50;;;;;21.68;45.10;100471.59;5015757;28;45591;-79
2023/12/11 09:38:21;;;;;;;;;7.25;3.25;;;;;21.57;45.24;100469.88;5016251;28;45570;-79
2023/12/11 09:40:47;;;;;;;;;2.75;2.25;;;;;21.51;44.90;100468.63;5015942;28;50713;-81
2023/12/11 09:43:13;;;;;;;;;5.50;4.00;;;;;21.57;45.35;100472.59;5015952;28;45419;-79
2023/12/11 09:45:40;;;;;;;;;5.25;3.00;;;;;21.51;44.97;100459.56;5016097;28;45408;-80
2023/12/11 09:48:06;;;;;;;;;4.25;3.00;;;;;21.46;45.25;100476.34;5016192;28;45432;-78
2023/12/11 09:50:32;;;;;;;;;5.00;5.00;;;;;21.39;45.16;100461.59;5015660;28;45443;-79
2023/12/11 09:52:59;;;;;;;;;5.00;4.00;;;;;21.66;45.22;100495.41;5015922;28;46023;-80
2023/12/11 09:55:25;;;;;;;;;7.50;4.25;;;;;21.59;45.20;100505.19;5015698;28;45320;-78
2023/12/11 09:57:51;;;;;;;;;4.00;4.00;;;;;21.62;45.05;100503.03;5015515;28;45412;-82
2023/12/11 10:00:17;;;;;;;;;3.25;3.25;;;;;21.60;45.00;100505.06;5015608;28;45510;-79
2023/12/11 10:02:46;;;;;;;;;4.75;2.75;;;;;21.52;45.18;100508.50;5015523;28;45419;-82
2023/12/11 10:05:21;;;;;;;;;12.25;4.50;;;;;21.56;44.94;100522.72;4997017;28;45307;-80
2023/12/11 10:07:47;;;;;;;;;3.25;3.00;;;;;21.03;45.55;100511.38;5015374;28;45459;-82
2023/12/11 10:10:33;;;;;;;;;6.00;3.50;;;;;21.43;45.11;100505.81;5015300;28;45397;-78
2023/12/11 10:13:00;;;;;;;;;6.00;3.00;;;;;21.40;45.09;100511.53;5015000;28;45502;-78
2023/12/11 10:15:31;;;;;;;;;4.00;3.00;;;;;21.15;45.22;100524.72;5015633;28;45479;-80
2023/12/11 10:18:13;;;;;;;;;4.25;2.00;;;;;21.34;45.51;100503.94;5015603;28;45603;-80
2023/12/11 10:20:41;;;;;;;;;7.00;2.00;;;;;21.43;44.75;100506.66;5014861;28;45395;-81
2023/12/11 10:23:21;;;;;;;;;6.00;3.00;;;;;21.68;44.88;100507.06;5015327;28;46067;-80
2023/12/11 10:25:49;;;;;;;;;6.00;3.00;;;;;21.67;44.33;100508.91;5015102;28;45390;-79
2023/12/11 10:28:18;;;;;;;;;3.50;3.00;;;;;21.72;44.06;100494.81;5008376;28;45479;-79
2023/12/11 10:30:54;;;;;;;;;4.00;2.25;;;;;21.62;44.57;100492.09;5014722;28;45477;-78
2023/12/11 10:33:21;;;;;;;;;8.00;4.50;;;;;21.74;44.30;100507.31;5014964;28;45377;-80
2023/12/11 10:35:46;;;;;;;;;4.50;2.25;;;;;;;;5014572;28;45445;-79
2023/12/11 10:38:23;;;;;;;;;4.50;3.50;;;;;21.73;43.76;100500.13;5015368;28;45451;-78
2023/12/11 10:40:49;;;;;;;;;8.25;3.25;;;;;21.87;43.69;100499.66;5015076;28;45637;-79
2023/12/11 10:43:14;;;;;;;;;7.00;4.50;;;;;21.92;43.34;100495.63;5015139;28;46147;-78
2023/12/11 10:45:40;;;;;;;;;3.75;3.50;;;;;21.74;43.30;100458.19;5015291;28;46153;-79
2023/12/11 10:48:06;;;;;;;;;9.25;4.00;;;;;21.77;43.45;100487.94;5015234;28;45384;-80
2023/12/11 10:50:33;;;;;;;;;7.25;3.00;;;;;21.76;43.80;100486.19;5014848;28;45436;-80
2023/12/11 10:53:03;;;;;;;;;5.25;3.00;;;;;21.99;43.54;100522.22;5014975;28;46261;-80
2023/12/11 10:55:29;;;;;;;;;4.00;2.75;;;;;22.11;43.12;100511.97;5014760;28;45377;-83
2023/12/11 10:57:57;;;;;;;;;4.50;2.25;;;;;21.77;43.85;100493.38;4997063;28;45425;-82
2023/12/11 11:00:22;;;;;;;;;4.50;3.00;;;;;22.30;42.38;100506.41;5015005;28;45234;-77
2023/12/11 11:02:51;;;;;;;;;4.00;4.00;;;;;22.49;42.50;100506.31;5014488;28;45307;-80
2023/12/11 11:05:19;;;;;;;;;3.00;2.00;;;;;22.26;42.15;100472.22;5014298;28;45585;-79
2023/12/11 11:07:56;;;;;;;;;5.50;2.00;;;;;22.40;42.44;100507.22;4996634;28;45412;-80
2023/12/11 11:10:28;;;;;;;;;2.50;2.25;;;;;22.48;41.84;100488.19;4983738;28;45298;-76
2023/12/11 11:13:21;;;;;;;;;3.00;2.00;;;;;22.54;42.05;100506.69;5014610;28;45534;-78
2023/12/11 11:15:53;;;;;;;;;6.25;3.75;;;;;22.75;41.63;100494.69;5014484;28;45428;-80
2023/12/11 11:18:18;;;;;;;;;7.00;3.75;;;;;22.73;41.73;100515.78;5014503;28;45453;-77
2023/12/11 11:21:08;;;;;;;;;4.50;3.25;;;;;22.77;41.27;100530.91;5014287;28;45361;-81
2023/12/11 11:23:42;;;;;;;;;5.00;4.00;;;;;22.70;41.59;100516.97;4996204;28;47090;-78
2023/12/11 11:26:34;;;;;;;;;4.00;2.75;;;;;22.85;41.00;100531.00;5014353;28;45387;-77
2023/12/11 11:29:04;;;;;;;;;2.25;2.00;;;;;22.70;41.27;100483.31;5009209;28;45350;-77
2023/12/11 11:31:48;;;;;;;;;5.00;3.00;;;;;22.88;41.32;100536.19;5014617;28;46166;-78
2023/12/11 11:34:13;;;;;;;;;6.25;3.50;;;;;22.70;41.07;100538.84;5013393;28;46368;-79
2023/12/11 11:36:46;;;;;;;;;6.25;4.25;;;;;22.80;40.98;100533.31;5014151;28;45523;-78
2023/12/11 11:39:12;;;;;;;;;5.25;4.50;;;;;22.79;40.25;100531.63;5013678;28;45457;-77
2023/12/11 11:41:38;;;;;;;;;4.50;3.00;;;;;22.90;40.72;100526.78;5014225;28;45351;-78
2023/12/11 11:44:05;;;;;;;;;5.25;4.50;;;;;22.95;40.23;100519.00;5014109;28;45380;-79
2023/12/11 11:46:54;;;;;;;;;5.75;3.00;;;;;23.26;40.35;100532.28;4996598;28;45401;-78
2023/12/11 11:49:37;;;;;;;;;3.00;2.00;;;;;23.20;39.18;100539.22;4996439;28;45446;-76
2023/12/11 11:52:07;;;;;;;;;5.00;2.25;;;;;23.19;39.54;100528.44;5013970;28;54759;-83
2023/12/11 11:54:35;;;;;;;;;5.00;3.50;;;;;23.42;39.78;100528.81;5014371;28;46506;-85
2023/12/11 11:57:01;;;;;;;;;9.50;3.00;;;;;23.43;39.26;100534.13;5014372;28;45278;-87
2023/12/11 11:59:26;;;;;;;;;2.00;2.00;;;;;23.31;39.30;100532.66;5015310;28;45434;-86
2023/12/11 12:01:58;;;;;;;;;4.25;4.25;;;;;23.33;39.64;100530.63;4996154;28;45594;-83
2023/12/11 12:04:32;;;;;;;;;4.00;3.00;;;;;23.21;39.30;100532.75;4997766;28;47091;-84
2023/12/11 12:07:00;;;;;;;;;5.00;3.25;;;;;23.15;39.59;100549.75;4997764;28;45310;-83
2023/12/11 12:09:26;;;;;;;;;2.75;2.50;;;;;22.84;40.18;100532.88;5016038;28;45488;-84
2023/12/11 12:11:51;;;;;;;;;3.50;3.00;;;;;22.76;39.76;100500.00;5018611;28;45693;-82
2023/12/11 12:14:17;;;;;;;;;2.25;2.00;;;;;23.02;39.28;100517.34;5001844;28;46970;-84
2023/12/11 12:16:43;;;;;;;;;6.75;4.25;;;;;23.29;39.61;100556.59;5016563;28;45216;-78
2023/12/11 12:19:09;;;;;;;;;9.00;2.75;;;;;22.96;39.75;100531.66;5017121;28;45342;-80
2023/12/11 12:21:52;;;;;;;;;4.50;2.50;;;;;23.02;39.64;100538.38;4998221;28;45367;-84
2023/12/11 12:24:19;;;;;;;;;5.75;4.00;;;;;23.36;39.75;100565.88;5013848;28;46554;-85
2023/12/11 12:26:46;;;;;;;;;6.50;5.25;;;;;23.43;38.99;100564.22;5013880;28;45360;-84
2023/12/11 12:29:12;;;;;;;;;4.00;2.25;;;;;23.30;39.56;100550.09;5014295;28;45441;-85
2023/12/11 12:31:39;;;;;;;;;3.75;1.00;;;;;23.40;39.44;100565.41;5014186;28;45526;-84
2023/12/11 12:34:06;;;;;;;;;7.50;2.50;;;;;23.42;39.30;100578.91;5013512;28;45594;-83
2023/12/11 12:36:33;;;;;;;;;5.75;3.00;;;;;23.13;39.53;100527.22;5013866;28;45426;-84
2023/12/11 12:38:58;;;;;;;;;8.75;3.75;;;;;22.99;40.00;100576.94;5013628;28;45570;-83
2023/12/11 12:41:24;;;;;;;;;4.50;3.00;;;;;22.86;40.14;100550.00;5014065;28;45338;-86
2023/12/11 12:43:50;;;;;;;;;3.50;1.00;;;;;23.06;39.32;100582.66;4996304;28;45498;-86
2023/12/11 12:46:15;;;;;;;;;4.50;4.00;;;;;23.10;39.73;100584.94;5017694;28;45352;-84
2023/12/11 12:48:41;;;;;;;;;4.25;3.00;;;;;22.96;39.93;100555.41;5016930;28;45855;-83
2023/12/11 12:51:07;;;;;;;;;1.00;1.00;;;;;23.34;39.66;100571.50;5017182;28;45302;-83
2023/12/11 12:53:32;;;;;;;;;3.50;2.00;;;;;23.10;39.92;100511.09;5017148;28;46591;-83
2023/12/11 12:55:58;;;;;;;;;3.75;3.75;;;;;23.26;39.55;100571.44;5017015;28;45502;-86
2023/12/11 12:58:26;;;;;;;;;5.00;3.25;;;;;23.36;39.28;100583.16;5017084;28;45299;-85
2023/12/11 13:00:56;;;;;;;;;2.00;2.00;;;;;22.78;40.04;100554.50;4998892;28;46496;-84
2023/12/11 13:03:25;;;;;;;;;4.50;2.00;;;;;23.01;40.05;100585.84;5016962;28;46067;-84
2023/12/11 13:05:55;;;;;;;;;4.00;4.00;;;;;23.13;39.87;100590.09;5016776;28;45330;-84
2023/12/11 13:08:20;;;;;;;;;4.75;4.25;;;;;22.72;39.94;100566.00;4998981;28;45322;-84
2023/12/11 13:10:56;;;;;;;;;3.75;2.50;;;;;22.89;39.95;100560.59;4998713;28;45704;-84
2023/12/11 13:13:27;;;;;;;;;5.50;3.25;;;;;23.08;39.77;100567.81;5016614;28;45546;-85
2023/12/11 13:15:53;;;;;;;;;2.50;2.00;;;;;23.21;39.59;100578.38;5016311;28;45439;-84
2023/12/11 13:18:19;;;;;;;;;5.50;1.00;;;;;23.12;39.76;100577.44;5016481;28;45992;-84
2023/12/11 13:20:44;;;;;;;;;5.00;3.75;;;;;23.32;39.60;100572.66;5016735;28;45629;-84
2023/12/11 13:23:10;;;;;;;;;4.75;3.50;;;;;22.97;40.09;100540.69;5016483;28;45905;-82
2023/12/11 13:25:35;;;;;;;;;6.25;4.00;;;;;22.89;39.76;100552.41;5018269;28;45235;-83
2023/12/11 13:28:00;;;;;;;;;5.00;3.50;;;;;23.10;39.95;100548.53;5010145;28;45356;-83
2023/12/11 13:30:27;;;;;;;;;5.00;2.25;;;;;23.10;39.39;100541.19;5028758;28;46033;-84
2023/12/11 13:32:52;;;;;;;;;6.25;2.50;;;;;23.30;39.71;100572.84;5029782;28;45533;-84
2023/12/11 13:35:18;;;;;;;;;2.50;2.50;;;;;22.97;39.74;100557.09;5004649;28;45442;-84
2023/12/11 13:37:44;;;;;;;;;4.25;3.00;;;;;23.20;39.52;100566.59;5016953;28;45388;-83
2023/12/11 13:40:13;;;;;;;;;7.00;3.75;;;;;23.21;39.69;100565.56;5016338;28;45365;-84
2023/12/11 13:42:38;;;;;;;;;4.25;4.00;;;;;22.99;39.54;100522.25;5016504;28;45462;-85
2023/12/11 13:45:04;;;;;;;;;3.00;3.00;;;;;22.85;39.90;100488.13;4997815;28;45500;-84
2023/12/11 13:47:29;;;;;;;;;5.25;2.00;;;;;23.25;39.37;100539.63;5015919;28;45587;-84
2023/12/11 13:49:55;;;;;;;;;5.75;2.00;;;;;23.50;39.08;100553.53;5016171;28;45294;-83
2023/12/11 13:52:20;;;;;;;;;5.50;3.25;;;;;23.42;38.75;100542.50;4997964;28;47481;-82
2023/12/11 13:54:46;;;;;;;;;2.75;2.75;;;;;23.48;38.82;100539.16;5015807;28;45590;-86
2023/12/11 13:57:11;;;;;;;;;5.75;3.00;;;;;23.37;38.98;100551.19;5015366;28;45400;-84
2023/12/11 13:59:37;;;;;;;;;2.25;2.25;;;;;23.38;39.46;100542.81;5002473;28;46916;-82
2023/12/11 14:02:02;;;;;;;;;4.50;4.50;;;;;23.60;38.45;100565.25;5015728;28;46223;-82
2023/12/11 14:04:28;;;;;;;;;3.50;2.75;;;;;23.42;38.82;100529.66;4997930;28;45357;-84
2023/12/11 14:06:56;;;;;;;;;2.00;2.00;;;;;23.28;38.58;100522.91;4997714;28;45518;-84
2023/12/11 14:09:21;;;;;;;;;3.75;3.50;;;;;23.45;39.25;100533.97;5015547;28;45226;-79
2023/12/11 14:11:47;;;;;;;;;7.75;3.50;;;;;23.56;38.99;100552.94;5016395;28;46178;-85
2023/12/11 14:14:12;;;;;;;;;6.25;3.50;;;;;23.54;39.31;100560.44;5016273;28;45365;-83
2023/12/11 14:16:38;;;;;;;;;2.25;2.00;;;;;23.42;38.76;100540.63;4997843;28;45354;-83
2023/12/11 14:19:03;;;;;;;;;7.50;3.00;;;;;23.11;39.25;100521.03;5014692;28;45633;-85
2023/12/11 14:21:28;;;;;;;;;4.00;3.00;;;;;23.39;39.25;100550.00;5015495;28;46162;-82
2023/12/11 14:23:54;;;;;;;;;6.50;2.75;;;;;23.30;39.46;100547.38;5015031;28;45321;-85
2023/12/11 14:26:21;;;;;;;;;7.25;3.00;;;;;22.72;39.75;100489.47;5014905;28;46156;-83
2023/12/11 14:28:46;;;;;;;;;6.25;3.00;;;;;22.95;39.08;100532.66;5020338;28;45574;-84
2023/12/11 14:31:11;;;;;;;;;3.50;3.00;;;;;22.91;39.32;100542.19;4983834;28;47319;-87
2023/12/11 14:33:38;;;;;;;;;8.50;4.75;;;;;22.99;39.72;100564.13;5015493;28;45375;-84
2023/12/11 14:36:04;;;;;;;;;4.75;3.25;;;;;22.76;39.46;100515.53;5015918;28;45414;-84
2023/12/11 14:38:30;;;;;;;;;2.75;2.75;;;;;22.72;39.20;100500.41;5015505;28;45546;-86
2023/12/11 14:40:58;;;;;;;;;2.50;2.50;;;;;22.99;39.15;100517.66;5015193;28;46116;-84
2023/12/11 14:43:23;;;;;;;;;10.25;2.75;;;;;22.90;39.37;100543.19;5015565;28;45378;-84
2023/12/11 14:45:49;;;;;;;;;2.00;2.00;;;;;22.73;39.45;100522.13;5016480;28;45717;-84
2023/12/11 14:48:14;;;;;;;;;4.75;2.50;;;;;22.75;39.28;100527.47;4997558;28;46087;-83
2023/12/11 14:50:39;;;;;;;;;7.25;3.25;;;;;22.94;39.82;100551.94;5014532;28;58556;-82
2023/12/11 14:53:05;;;;;;;;;5.50;3.00;;;;;22.83;39.99;100576.75;5015007;28;45353;-85
2023/12/11 14:55:30;;;;;;;;;2.75;2.75;;;;;22.87;39.96;100557.19;5015163;28;45317;-82
2023/12/11 14:57:56;;;;;;;;;0.25;0.25;;;;;22.66;39.79;100537.41;5015140;28;45617;-84
2023/12/11 15:00:21;;;;;;;;;3.50;3.25;;;;;22.37;40.32;100523.91;5015199;28;45501;-81
2023/12/11 15:02:46;;;;;;;;;3.25;2.00;;;;;22.49;40.46;100554.63;5015911;28;45349;-86
2023/12/11 15:05:12;;;;;;;;;4.00;2.00;;;;;22.69;40.23;100583.59;5016037;28;45321;-82
2023/12/11 15:07:37;;;;;;;;;4.50;3.00;;;;;22.73;40.08;100573.19;5013480;28;45562;-82
2023/12/11 15:10:05;;;;;;;;;7.00;2.00;;;;;22.65;40.50;100561.16;5014711;28;45483;-83
2023/12/11 15:12:30;;;;;;;;;8.25;3.00;;;;;22.58;40.36;100570.13;4996091;28;46103;-82
2023/12/11 15:14:56;;;;;;;;;4.00;2.00;;;;;22.68;40.65;100570.06;5015228;28;45294;-79
2023/12/11 15:17:21;;;;;;;;;2.00;2.00;;;;;22.74;40.52;100567.59;5014243;28;57147;-79
2023/12/11 15:19:46;;;;;;;;;3.00;3.00;;;;;22.76;40.73;100568.31;5014365;28;45515;-83
2023/12/11 15:22:12;;;;;;;;;4.00;3.50;;;;;22.76;40.88;100575.66;4996559;28;51422;-79
2023/12/11 15:24:37;;;;;;;;;4.00;3.75;;;;;22.47;41.02;100546.56;5014995;28;45218;-80
2023/12/11 15:27:06;;;;;;;;;3.00;3.00;;;;;22.43;40.97;100539.72;4995847;28;62208;-78
2023/12/11 15:29:32;;;;;;;;;5.00;3.25;;;;;22.65;41.09;100576.69;5014893;28;45400;-76
2023/12/11 15:31:57;;;;;;;;;3.00;3.00;;;;;22.66;41.15;100572.94;5014582;28;45343;-79
2023/12/11 15:34:22;;;;;;;;;5.00;3.75;;;;;22.62;40.86;100572.41;4996444;28;45992;-80
2023/12/11 15:36:48;;;;;;;;;5.25;4.00;;;;;22.44;41.32;100566.03;5013873;28;58703;-81
2023/12/11 15:39:13;;;;;;;;;5.25;3.75;;;;;22.45;41.75;100561.41;5014094;28;47198;-80
2023/12/11 15:41:39;;;;;;;;;5.50;3.00;;;;;22.54;41.46;100555.06;5014207;28;50145;-82
2023/12/11 15:44:04;;;;;;;;;6.25;2.25;;;;;22.52;41.24;100540.66;5014239;28;45422;-81
2023/12/11 15:46:33;;;;;;;;;4.00;4.00;;;;;22.63;41.61;100574.09;4996205;28;54397;-81
2023/12/11 15:48:58;;;;;;;;;4.00;2.50;;;;;22.62;41.61;100555.16;4996338;28;47237;-81
2023/12/11 15:51:25;;;;;;;;;4.00;2.75;;;;;22.24;41.83;100521.53;4996588;28;45340;-83
2023/12/11 15:53:51;;;;;;;;;6.25;3.75;;;;;22.43;41.50;100550.63;5014384;28;45229;-83
2023/12/11 15:56:17;;;;;;;;;7.00;3.25;;;;;22.53;41.47;100559.66;5013954;28;45507;-83
2023/12/11 15:58:43;;;;;;;;;5.00;4.00;;;;;22.41;41.71;100540.88;4996871;28;47557;-86
2023/12/11 16:01:10;;;;;;;;;4.00;4.00;;;;;22.51;41.78;100566.28;5014797;28;45428;-84
2023/12/11 16:03:38;;;;;;;;;5.50;4.00;;;;;22.42;41.99;100548.06;4996930;28;45558;-87
2023/12/11 16:06:04;;;;;;;;;6.00;4.50;;;;;22.38;42.20;100558.41;5013817;28;45361;-84
2023/12/11 16:08:29;;;;;;;;;5.25;4.00;;;;;22.42;42.20;100578.97;5013239;28;46077;-82
2023/12/11 16:10:55;;;;;;;;;4.75;3.75;;;;;22.46;41.87;100587.69;5013718;28;45331;-83
2023/12/11 16:13:20;;;;;;;;;5.75;4.25;;;;;22.42;42.54;100591.75;4995630;28;45460;-83
2023/12/11 16:15:46;;;;;;;;;4.75;3.00;;;;;22.41;42.31;100590.91;5010322;28;45238;-80
2023/12/11 16:18:11;;;;;;;;;6.50;4.00;;;;;22.40;42.99;100583.72;4987354;28;47494;-83
2023/12/11 16:20:37;;;;;;;;;8.75;5.00;;;;;22.15;42.66;100554.34;4997828;28;45448;-82
2023/12/11 16:23:02;;;;;;;;;5.00;5.00;;;;;22.26;42.31;100557.75;5016234;28;45464;-82
2023/12/11 16:25:28;;;;;;;;;6.50;3.50;;;;;22.22;42.90;100566.38;5015224;28;45467;-81
2023/12/11 16:27:53;;;;;;;;;5.50;5.25;;;;;22.20;42.76;100563.78;5017323;28;45363;-83
2023/12/11 16:30:18;;;;;;;;;5.25;3.50;;;;;22.22;42.97;100583.63;5017264;28;45464;-82
2023/12/11 16:32:44;;;;;;;;;8.75;5.00;;;;;22.06;43.35;100556.09;5017413;28;45401;-83
2023/12/11 16:35:09;;;;;;;;;9.25;6.75;;;;;22.09;43.52;100574.06;5016405;28;45451;-83
2023/12/11 16:37:34;;;;;;;;;5.00;4.75;;;;;21.89;43.55;100554.09;5016325;28;45800;-82
2023/12/11 16:40:00;;;;;;;;;8.00;4.00;;;;;21.78;44.02;100554.25;5017170;28;45270;-83
2023/12/11 16:42:27;;;;;;;;;8.25;7.00;;;;;22.07;43.92;100596.03;5016971;28;45331;-82
2023/12/11 16:44:52;;;;;;;;;5.00;5.00;;;;;22.00;43.52;100583.13;4988740;28;45490;-81
2023/12/11 16:47:18;;;;;;;;;13.50;9.50;;;;;22.04;43.96;100603.66;4996175;28;46802;-82
2023/12/11 16:49:44;;;;;;;;;2.50;2.00;;;;;21.90;43.61;100577.66;5017217;28;45412;-83
2023/12/11 16:52:09;;;;;;;;;8.50;7.00;;;;;21.78;43.94;100556.97;5017270;28;45289;-82
2023/12/11 16:54:35;;;;;;;;;8.50;7.00;;;;;21.90;43.60;100574.94;5016996;28;45602;-82
2023/12/11 16:57:00;;;;;;;;;8.50;7.00;;;;;22.00;44.24;100615.88;4999431;28;48116;-81